createdAt,value
2018-07-24T00:00:16.477Z,57.37
2018-07-24T00:01:16.575Z,57.35
2018-07-24T00:02:16.605Z,57.32
2018-07-24T00:03:16.514Z,57.36
2018-07-24T00:04:16.360Z,57.28
2018-07-24T00:05:16.544Z,57.23
2018-07-24T00:06:16.471Z,57.28
2018-07-24T00:07:16.655Z,57.25
2018-07-24T00:08:16.416Z,57.36
2018-07-24T00:09:16.510Z,57.31
2018-07-24T00:10:16.569Z,57.29
2018-07-24T00:11:16.685Z,57.26
2018-07-24T00:12:16.605Z,57.25
2018-07-24T00:13:16.706Z,57.34
2018-07-24T00:14:16.567Z,57.35
2018-07-24T00:15:16.474Z,57.29
2018-07-24T00:16:16.861Z,57.23
2018-07-24T00:17:16.507Z,57.27
2018-07-24T00:18:16.560Z,57.41
2018-07-24T00:19:16.589Z,57.42
2018-07-24T00:20:16.714Z,57.25
2018-07-24T00:21:16.568Z,57.27
2018-07-24T00:22:16.732Z,57.4
2018-07-24T00:23:16.732Z,57.2
2018-07-24T00:24:16.430Z,57.29
2018-07-24T00:25:16.553Z,57.34
2018-07-24T00:26:16.700Z,57.21
2018-07-24T00:27:16.532Z,57.22
2018-07-24T00:28:16.527Z,57.38
2018-07-24T00:29:16.525Z,57.36
2018-07-24T00:30:16.529Z,57.35
2018-07-24T00:31:16.649Z,57.22
2018-07-24T00:32:16.652Z,57.17
2018-07-24T00:33:16.417Z,57.29
2018-07-24T00:34:16.507Z,57.39
2018-07-24T00:35:16.519Z,57.32
2018-07-24T00:36:16.502Z,57.22
2018-07-24T00:37:16.471Z,57.2
2018-07-24T00:38:16.631Z,57.23
2018-07-24T00:39:16.460Z,57.23
2018-07-24T00:40:16.498Z,57.18
2018-07-24T00:41:16.461Z,57.24
2018-07-24T00:42:16.552Z,57.27
2018-07-24T00:43:16.586Z,57.35
2018-07-24T00:44:16.617Z,57.25
2018-07-24T00:45:16.518Z,57.39
2018-07-24T00:46:17.297Z,57.26
2018-07-24T00:47:16.747Z,57.29
2018-07-24T00:48:16.579Z,57.38
2018-07-24T00:49:16.597Z,57.39
2018-07-24T00:50:16.691Z,57.22
2018-07-24T00:51:16.576Z,57.28
2018-07-24T00:52:16.607Z,57.25
2018-07-24T00:53:16.480Z,57.24
2018-07-24T00:54:16.745Z,57.29
2018-07-24T00:55:16.543Z,57.27
2018-07-24T00:56:16.594Z,57.28
2018-07-24T00:57:16.655Z,57.36
2018-07-24T00:58:16.545Z,57.18
2018-07-24T00:59:16.561Z,57.28
2018-07-24T01:00:16.583Z,57.27
2018-07-24T01:01:46.967Z,57.36
2018-07-24T01:02:16.569Z,57.31
2018-07-24T01:03:16.626Z,57.29
2018-07-24T01:04:16.631Z,57.2
2018-07-24T01:05:16.946Z,57.33
2018-07-24T01:06:16.738Z,57.25
2018-07-24T01:07:16.597Z,57.34
2018-07-24T01:08:16.643Z,57.33
2018-07-24T01:09:16.485Z,57.31
2018-07-24T01:10:16.651Z,57.14
2018-07-24T01:11:16.609Z,57.27
2018-07-24T01:12:16.538Z,57.22
2018-07-24T01:13:16.702Z,57.22
2018-07-24T01:14:16.448Z,57.24
2018-07-24T01:15:16.599Z,57.36
2018-07-24T01:16:16.605Z,57.35
2018-07-24T01:17:16.339Z,57.3
2018-07-24T01:18:16.757Z,57.21
2018-07-24T01:19:16.450Z,57.27
2018-07-24T01:20:16.558Z,57.26
2018-07-24T01:21:16.520Z,57.25
2018-07-24T01:22:16.546Z,57.17
2018-07-24T01:23:16.421Z,57.27
2018-07-24T01:24:16.591Z,57.4
2018-07-24T01:25:16.575Z,57.3
2018-07-24T01:26:16.548Z,57.33
2018-07-24T01:27:16.538Z,57.22
2018-07-24T01:28:16.406Z,57.44
2018-07-24T01:29:16.532Z,57.37
2018-07-24T01:30:16.663Z,57.15
2018-07-24T01:31:16.333Z,57.4
2018-07-24T01:32:16.505Z,57.26
2018-07-24T01:33:16.590Z,57.12
2018-07-24T01:34:16.635Z,57.32
2018-07-24T01:35:16.736Z,57.35
2018-07-24T01:36:16.631Z,57.47
2018-07-24T01:37:16.592Z,57.26
2018-07-24T01:38:16.642Z,57.44
2018-07-24T01:39:16.519Z,57.2
2018-07-24T01:40:16.613Z,57.37
2018-07-24T01:41:16.510Z,57.18
2018-07-24T01:42:16.479Z,57.25
2018-07-24T01:43:16.543Z,57.31
2018-07-24T01:44:16.552Z,57.26
2018-07-24T01:45:16.557Z,57.33
2018-07-24T01:46:16.768Z,57.42
2018-07-24T01:47:16.651Z,57.23
2018-07-24T01:48:16.571Z,57.32
2018-07-24T01:49:16.542Z,57.32
2018-07-24T01:50:16.475Z,57.31
2018-07-24T01:51:16.514Z,57.19
2018-07-24T01:52:16.379Z,57.26
2018-07-24T01:53:16.519Z,57.32
2018-07-24T01:54:18.183Z,57.21
2018-07-24T01:55:16.396Z,57.35
2018-07-24T01:56:16.572Z,57.21
2018-07-24T01:57:16.483Z,57.23
2018-07-24T01:58:16.644Z,57.24
2018-07-24T01:59:16.708Z,57.34
2018-07-24T02:00:16.734Z,57.25
2018-07-24T02:01:16.588Z,57.24
2018-07-24T02:02:16.558Z,57.3
2018-07-24T02:03:16.686Z,57.13
2018-07-24T02:04:16.560Z,57.34
2018-07-24T02:05:16.576Z,57.23
2018-07-24T02:06:16.653Z,57.23
2018-07-24T02:07:16.507Z,57.22
2018-07-24T02:08:16.646Z,57.23
2018-07-24T02:09:16.456Z,57.26
2018-07-24T02:10:16.584Z,57.33
2018-07-24T02:11:16.906Z,57.3
2018-07-24T02:12:16.569Z,57.23
2018-07-24T02:13:16.617Z,57.29
2018-07-24T02:14:16.566Z,57.25
2018-07-24T02:15:16.686Z,57.26
2018-07-24T02:16:16.618Z,57.24
2018-07-24T02:17:16.613Z,57.24
2018-07-24T02:18:17.780Z,57.26
2018-07-24T02:19:16.612Z,57.26
2018-07-24T02:20:16.637Z,57.33
2018-07-24T02:21:16.442Z,57.29
2018-07-24T02:22:16.587Z,57.39
2018-07-24T02:23:16.652Z,57.3
2018-07-24T02:24:16.625Z,57.34
2018-07-24T02:25:16.590Z,57.36
2018-07-24T02:26:26.601Z,57.28
2018-07-24T02:27:16.659Z,57.23
2018-07-24T02:28:16.599Z,57.26
2018-07-24T02:29:16.631Z,57.39
2018-07-24T02:30:16.577Z,57.26
2018-07-24T02:31:16.511Z,57.3
2018-07-24T02:32:16.508Z,57.3
2018-07-24T02:33:16.503Z,57.23
2018-07-24T02:34:16.482Z,57.24
2018-07-24T02:35:16.794Z,57.23
2018-07-24T02:36:16.632Z,57.33
2018-07-24T02:37:16.647Z,57.26
2018-07-24T02:38:16.528Z,57.32
2018-07-24T02:39:16.545Z,57.23
2018-07-24T02:40:16.637Z,57.32
2018-07-24T02:41:16.620Z,57.36
2018-07-24T02:42:16.661Z,57.31
2018-07-24T02:43:16.697Z,57.33
2018-07-24T02:44:16.617Z,57.34
2018-07-24T02:45:16.597Z,57.22
2018-07-24T02:46:16.827Z,57.22
2018-07-24T02:47:16.677Z,57.34
2018-07-24T02:48:16.596Z,57.27
2018-07-24T02:49:16.655Z,57.32
2018-07-24T02:50:16.501Z,57.24
2018-07-24T02:51:16.548Z,57.31
2018-07-24T02:52:16.411Z,57.27
2018-07-24T02:53:16.424Z,57.26
2018-07-24T02:54:16.373Z,57.34
2018-07-24T02:55:16.403Z,57.17
2018-07-24T02:56:16.509Z,57.32
2018-07-24T02:57:16.427Z,57.27
2018-07-24T02:58:16.502Z,57.43
2018-07-24T02:59:16.483Z,57.32
2018-07-24T03:00:16.534Z,57.36
2018-07-24T03:01:16.466Z,57.23
2018-07-24T03:02:16.604Z,57.32
2018-07-24T03:03:16.475Z,57.37
2018-07-24T03:04:16.576Z,57.23
2018-07-24T03:05:16.664Z,57.39
2018-07-24T03:06:16.467Z,57.26
2018-07-24T03:07:16.642Z,57.36
2018-07-24T03:08:16.459Z,57.23
2018-07-24T03:09:16.793Z,57.27
2018-07-24T03:10:16.666Z,57.32
2018-07-24T03:11:16.513Z,57.21
2018-07-24T03:12:16.703Z,57.26
2018-07-24T03:13:16.533Z,57.17
2018-07-24T03:14:16.737Z,57.32
2018-07-24T03:15:16.527Z,57.28
2018-07-24T03:16:16.586Z,57.33
2018-07-24T03:17:16.556Z,57.24
2018-07-24T03:18:16.563Z,57.16
2018-07-24T03:19:16.408Z,57.29
2018-07-24T03:20:16.719Z,57.34
2018-07-24T03:21:16.665Z,57.21
2018-07-24T03:22:16.671Z,57.3
2018-07-24T03:23:16.704Z,57.35
2018-07-24T03:24:16.571Z,57.26
2018-07-24T03:25:16.752Z,57.2
2018-07-24T03:26:16.591Z,57.32
2018-07-24T03:27:16.663Z,57.34
2018-07-24T03:28:17.025Z,57.25
2018-07-24T03:29:16.666Z,57.32
2018-07-24T03:30:16.399Z,57.29
2018-07-24T03:31:16.517Z,57.37
2018-07-24T03:32:16.766Z,57.31
2018-07-24T03:33:16.577Z,57.33
2018-07-24T03:34:16.806Z,57.25
2018-07-24T03:35:16.550Z,57.27
2018-07-24T03:36:16.933Z,57.31
2018-07-24T03:37:16.659Z,57.3
2018-07-24T03:38:16.397Z,57.26
2018-07-24T03:39:16.642Z,57.17
2018-07-24T03:40:16.572Z,57.25
2018-07-24T03:41:16.682Z,57.3
2018-07-24T03:42:16.837Z,57.44
2018-07-24T03:43:16.839Z,57.25
2018-07-24T03:44:16.695Z,57.2
2018-07-24T03:45:16.682Z,57.35
2018-07-24T03:46:16.524Z,57.37
2018-07-24T03:47:16.731Z,57.37
2018-07-24T03:48:16.509Z,57.47
2018-07-24T03:49:16.746Z,57.28
2018-07-24T03:50:16.707Z,57.38
2018-07-24T03:51:16.588Z,57.37
2018-07-24T03:52:16.609Z,57.24
2018-07-24T03:53:16.576Z,57.33
2018-07-24T03:54:16.713Z,57.31
2018-07-24T03:55:17.352Z,57.24
2018-07-24T03:56:17.101Z,57.35
2018-07-24T03:57:16.530Z,57.38
2018-07-24T03:58:16.577Z,57.25
2018-07-24T03:59:16.538Z,57.27
2018-07-24T04:00:16.561Z,57.24
2018-07-24T04:01:16.685Z,57.16
2018-07-24T04:02:16.588Z,57.38
2018-07-24T04:03:16.637Z,57.25
2018-07-24T04:04:16.613Z,57.27
2018-07-24T04:05:16.400Z,57.32
2018-07-24T04:06:16.508Z,57.29
2018-07-24T04:07:16.383Z,57.24
2018-07-24T04:08:16.434Z,57.32
2018-07-24T04:09:16.602Z,57.34
2018-07-24T04:10:16.370Z,57.37
2018-07-24T04:11:16.310Z,57.27
2018-07-24T04:12:16.506Z,57.26
2018-07-24T04:13:16.497Z,57.24
2018-07-24T04:14:16.177Z,57.25
2018-07-24T04:15:16.565Z,57.39
2018-07-24T04:16:16.549Z,57.33
2018-07-24T04:17:16.707Z,57.36
2018-07-24T04:18:16.567Z,57.2
2018-07-24T04:19:16.543Z,57.24
2018-07-24T04:20:16.529Z,57.29
2018-07-24T04:21:16.637Z,57.26
2018-07-24T04:22:16.608Z,57.3
2018-07-24T04:23:16.320Z,57.33
2018-07-24T04:24:16.631Z,57.37
2018-07-24T04:25:16.564Z,57.33
2018-07-24T04:26:16.337Z,57.21
2018-07-24T04:27:16.632Z,57.27
2018-07-24T04:28:16.539Z,57.26
2018-07-24T04:29:17.927Z,57.22
2018-07-24T04:30:16.661Z,57.28
2018-07-24T04:31:17.030Z,57.25
2018-07-24T04:32:16.355Z,57.27
2018-07-24T04:33:16.569Z,57.12
2018-07-24T04:34:16.561Z,57.25
2018-07-24T04:35:16.731Z,57.16
2018-07-24T04:36:16.840Z,57.31
2018-07-24T04:37:16.588Z,57.34
2018-07-24T04:38:16.513Z,57.21
2018-07-24T04:39:16.544Z,57.25
2018-07-24T04:40:16.929Z,57.31
2018-07-24T04:41:16.430Z,57.25
2018-07-24T04:42:16.671Z,57.23
2018-07-24T04:43:16.691Z,57.36
2018-07-24T04:44:16.474Z,57.32
2018-07-24T04:45:16.638Z,57.34
2018-07-24T04:46:16.680Z,57.13
2018-07-24T04:47:16.584Z,57.17
2018-07-24T04:48:16.557Z,57.33
2018-07-24T04:49:16.545Z,57.33
2018-07-24T04:50:16.364Z,57.38
2018-07-24T04:51:16.631Z,57.29
2018-07-24T04:52:16.678Z,57.21
2018-07-24T04:53:16.345Z,57.26
2018-07-24T04:54:16.544Z,57.25
2018-07-24T04:55:16.646Z,57.17
2018-07-24T04:56:16.641Z,57.33
2018-07-24T04:57:16.607Z,57.39
2018-07-24T04:58:16.575Z,57.34
2018-07-24T04:59:16.393Z,57.36
2018-07-24T05:00:16.643Z,57.28
2018-07-24T05:01:16.802Z,57.5
2018-07-24T05:02:16.626Z,57.27
2018-07-24T05:03:16.783Z,57.2
2018-07-24T05:04:16.731Z,57.4
2018-07-24T05:05:16.646Z,57.32
2018-07-24T05:06:16.657Z,57.4
2018-07-24T05:07:16.286Z,57.25
2018-07-24T05:08:16.323Z,57.27
2018-07-24T05:09:16.680Z,57.17
2018-07-24T05:10:16.450Z,57.2
2018-07-24T05:11:16.345Z,57.34
2018-07-24T05:12:16.631Z,57.3
2018-07-24T05:13:16.758Z,57.38
2018-07-24T05:14:16.543Z,57.3
2018-07-24T05:15:16.573Z,57.18
2018-07-24T05:16:16.343Z,57.2
2018-07-24T05:17:16.289Z,57.29
2018-07-24T05:18:16.554Z,57.35
2018-07-24T05:19:16.501Z,57.21
2018-07-24T05:20:16.587Z,57.35
2018-07-24T05:21:16.552Z,57.35
2018-07-24T05:22:16.660Z,57.38
2018-07-24T05:23:16.431Z,57.35
2018-07-24T05:24:16.550Z,57.23
2018-07-24T05:25:16.516Z,57.35
2018-07-24T05:26:16.469Z,57.31
2018-07-24T05:27:16.611Z,57.4
2018-07-24T05:28:16.475Z,57.23
2018-07-24T05:29:16.625Z,57.23
2018-07-24T05:30:16.490Z,57.41
2018-07-24T05:31:16.657Z,57.3
2018-07-24T05:32:16.632Z,57.22
2018-07-24T05:33:16.854Z,57.25
2018-07-24T05:34:16.508Z,57.33
2018-07-24T05:35:16.147Z,57.34
2018-07-24T05:36:16.829Z,57.32
2018-07-24T05:37:16.704Z,57.3
2018-07-24T05:38:16.524Z,57.28
2018-07-24T05:39:16.395Z,57.28
2018-07-24T05:40:16.669Z,57.33
2018-07-24T05:41:16.525Z,57.3
2018-07-24T05:42:16.569Z,57.38
2018-07-24T05:43:16.527Z,57.28
2018-07-24T05:44:16.332Z,57.3
2018-07-24T05:45:16.468Z,57.25
2018-07-24T05:46:16.562Z,57.4
2018-07-24T05:47:16.371Z,57.27
2018-07-24T05:48:16.676Z,57.3
2018-07-24T05:49:16.578Z,57.34
2018-07-24T05:50:16.560Z,57.36
2018-07-24T05:51:16.440Z,57.4
2018-07-24T05:52:16.544Z,57.3
2018-07-24T05:53:16.309Z,57.25
2018-07-24T05:54:16.342Z,57.19
2018-07-24T05:55:16.549Z,57.22
2018-07-24T05:56:16.720Z,57.33
2018-07-24T05:57:16.682Z,57.32
2018-07-24T05:58:16.785Z,57.24
2018-07-24T05:59:16.508Z,57.29
2018-07-24T06:00:16.676Z,57.29
2018-07-24T06:01:16.663Z,57.21
2018-07-24T06:02:16.359Z,57.2
2018-07-24T06:03:16.755Z,57.18
2018-07-24T06:04:16.335Z,57.34
2018-07-24T06:05:16.576Z,57.23
2018-07-24T06:06:16.591Z,57.3
2018-07-24T06:07:16.654Z,57.23
2018-07-24T06:08:16.503Z,57.31
2018-07-24T06:09:16.513Z,57.4
2018-07-24T06:10:16.614Z,57.28
2018-07-24T06:11:16.340Z,57.31
2018-07-24T06:12:16.573Z,57.49
2018-07-24T06:13:16.870Z,57.32
2018-07-24T06:14:16.373Z,57.21
2018-07-24T06:15:16.822Z,57.3
2018-07-24T06:16:16.543Z,57.19
2018-07-24T06:17:16.696Z,57.29
2018-07-24T06:18:16.524Z,57.32
2018-07-24T06:19:16.781Z,57.26
2018-07-24T06:20:16.344Z,57.35
2018-07-24T06:21:16.842Z,57.59
2018-07-24T06:22:16.435Z,57.35
2018-07-24T06:23:16.413Z,57.52
2018-07-24T06:24:16.511Z,57.3
2018-07-24T06:25:16.904Z,57.38
2018-07-24T06:26:16.627Z,57.41
2018-07-24T06:27:16.637Z,57.34
2018-07-24T06:28:16.545Z,57.31
2018-07-24T06:29:16.426Z,57.29
2018-07-24T06:30:16.321Z,57.32
2018-07-24T06:31:16.466Z,57.38
2018-07-24T06:32:16.516Z,57.54
2018-07-24T06:33:16.326Z,57.39
2018-07-24T06:34:16.622Z,57.43
2018-07-24T06:35:16.414Z,57.32
2018-07-24T06:36:16.745Z,57.45
2018-07-24T06:37:16.572Z,57.34
2018-07-24T06:38:16.199Z,57.36
2018-07-24T06:39:16.312Z,57.43
2018-07-24T06:40:16.387Z,57.35
2018-07-24T06:41:16.324Z,57.23
2018-07-24T06:42:16.362Z,57.27
2018-07-24T06:43:16.730Z,57.23
2018-07-24T06:44:16.512Z,57.35
2018-07-24T06:45:16.371Z,57.43
2018-07-24T06:46:16.523Z,57.37
2018-07-24T06:47:16.350Z,57.27
2018-07-24T06:48:16.607Z,57.18
2018-07-24T06:49:16.685Z,57.26
2018-07-24T06:50:16.275Z,57.53
2018-07-24T06:51:16.789Z,57.94
2018-07-24T06:52:16.430Z,57.68
2018-07-24T06:53:16.350Z,57.53
2018-07-24T06:54:16.727Z,57.73
2018-07-24T06:55:16.725Z,57.51
2018-07-24T06:56:16.298Z,57.62
2018-07-24T06:57:16.943Z,57.67
2018-07-24T06:58:16.888Z,57.5
2018-07-24T06:59:17.415Z,57.64
2018-07-24T07:00:17.479Z,57.45
2018-07-24T07:01:17.211Z,57.57
2018-07-24T07:02:17.607Z,57.43
2018-07-24T07:03:17.057Z,57.54
2018-07-24T07:04:17.186Z,57.53
2018-07-24T07:05:16.298Z,57.36
2018-07-24T07:06:17.009Z,57.5
2018-07-24T07:07:17.020Z,57.38
2018-07-24T07:08:16.983Z,57.33
2018-07-24T07:09:16.330Z,57.37
2018-07-24T07:10:16.857Z,57.46
2018-07-24T07:11:16.716Z,57.31
2018-07-24T07:12:16.784Z,57.3
2018-07-24T07:13:16.741Z,57.46
2018-07-24T07:14:19.161Z,57.36
2018-07-24T07:15:16.181Z,57.31
2018-07-24T07:16:17.117Z,57.41
2018-07-24T07:17:16.324Z,57.53
2018-07-24T07:18:16.277Z,57.31
2018-07-24T07:19:16.432Z,57.35
2018-07-24T07:20:16.819Z,57.36
2018-07-24T07:21:16.500Z,57.41
2018-07-24T07:22:16.611Z,57.42
2018-07-24T07:23:16.400Z,57.28
2018-07-24T07:24:16.340Z,57.31
2018-07-24T07:25:16.268Z,57.39
2018-07-24T07:26:16.757Z,57.37
2018-07-24T07:27:16.661Z,57.41
2018-07-24T07:28:16.443Z,57.42
2018-07-24T07:29:16.799Z,57.31
2018-07-24T07:30:16.625Z,57.28
2018-07-24T07:31:16.269Z,57.29
2018-07-24T07:32:16.537Z,57.39
2018-07-24T07:33:16.463Z,57.4
2018-07-24T07:34:16.430Z,57.42
2018-07-24T07:35:16.491Z,57.42
2018-07-24T07:36:16.345Z,57.19
2018-07-24T07:37:16.284Z,57.36
2018-07-24T07:38:16.337Z,57.32
2018-07-24T07:39:16.849Z,57.29
2018-07-24T07:40:16.481Z,57.37
2018-07-24T07:41:16.436Z,57.3
2018-07-24T07:42:16.520Z,57.34
2018-07-24T07:43:16.509Z,57.3
2018-07-24T07:44:16.328Z,57.3
2018-07-24T07:45:16.408Z,57.46
2018-07-24T07:46:16.377Z,57.36
2018-07-24T07:47:16.296Z,57.3
2018-07-24T07:48:16.323Z,57.43
2018-07-24T07:49:16.511Z,57.16
2018-07-24T07:50:16.108Z,57.22
2018-07-24T07:51:16.407Z,57.29
2018-07-24T07:52:16.472Z,57.34
2018-07-24T07:53:16.480Z,57.13
2018-07-24T07:54:16.336Z,57.38
2018-07-24T07:55:16.592Z,57.32
2018-07-24T07:56:16.389Z,57.36
2018-07-24T07:57:16.321Z,57.35
2018-07-24T07:58:16.781Z,57.29
2018-07-24T07:59:16.317Z,57.29
2018-07-24T08:00:16.442Z,57.33
2018-07-24T08:01:16.354Z,57.29
2018-07-24T08:02:16.258Z,57.26
2018-07-24T08:03:16.334Z,57.44
2018-07-24T08:04:16.719Z,57.21
2018-07-24T08:05:16.623Z,57.25
2018-07-24T08:06:16.427Z,57.32
2018-07-24T08:07:16.231Z,57.36
2018-07-24T08:08:16.289Z,57.27
2018-07-24T08:09:16.585Z,57.23
2018-07-24T08:10:16.364Z,57.33
2018-07-24T08:11:16.333Z,57.33
2018-07-24T08:12:16.625Z,57.2
2018-07-24T08:13:16.721Z,57.2
2018-07-24T08:14:16.767Z,57.23
2018-07-24T08:15:16.562Z,57.27
2018-07-24T08:16:16.375Z,57.32
2018-07-24T08:17:16.273Z,57.23
2018-07-24T08:18:16.387Z,57.17
2018-07-24T08:19:16.508Z,57.33
2018-07-24T08:20:16.634Z,57.19
2018-07-24T08:21:16.486Z,57.13
2018-07-24T08:22:16.897Z,57.25
2018-07-24T08:23:19.205Z,57.19
2018-07-24T08:24:16.608Z,57.24
2018-07-24T08:25:16.424Z,57.28
2018-07-24T08:26:16.533Z,57.29
2018-07-24T08:27:16.554Z,57.26
2018-07-24T08:28:16.907Z,57.22
2018-07-24T08:29:16.438Z,57.36
2018-07-24T08:30:16.240Z,57.4
2018-07-24T08:31:16.549Z,57.35
2018-07-24T08:32:16.370Z,57.36
2018-07-24T08:33:16.430Z,57.38
2018-07-24T08:34:16.437Z,57.4
2018-07-24T08:35:16.298Z,57.15
2018-07-24T08:36:16.633Z,57.23
2018-07-24T08:37:16.599Z,57.14
2018-07-24T08:38:16.504Z,57.27
2018-07-24T08:39:16.357Z,57.17
2018-07-24T08:40:16.335Z,57.17
2018-07-24T08:41:16.421Z,57.18
2018-07-24T08:42:16.632Z,57.14
2018-07-24T08:43:16.659Z,57.24
2018-07-24T08:44:16.302Z,57.32
2018-07-24T08:45:16.577Z,57.15
2018-07-24T08:46:16.380Z,57.2
2018-07-24T08:47:16.492Z,57.25
2018-07-24T08:48:16.385Z,57.15
2018-07-24T08:49:16.863Z,57.3
2018-07-24T08:50:16.223Z,57.17
2018-07-24T08:51:16.245Z,57.21
2018-07-24T08:52:16.485Z,57.21
2018-07-24T08:53:17.055Z,57.29
2018-07-24T08:54:17.231Z,57.26
2018-07-24T08:55:16.907Z,57.27
2018-07-24T08:56:16.339Z,57.29
2018-07-24T08:57:16.253Z,57.28
2018-07-24T08:58:16.635Z,57.19
2018-07-24T08:59:16.288Z,57.22
2018-07-24T09:00:16.431Z,57.24
2018-07-24T09:01:16.472Z,57.25
2018-07-24T09:02:16.208Z,57.16
2018-07-24T09:03:16.508Z,57.17
2018-07-24T09:04:16.459Z,57.03
2018-07-24T09:05:16.518Z,57.05
2018-07-24T09:06:16.405Z,57.17
2018-07-24T09:07:16.376Z,57.4
2018-07-24T09:08:16.447Z,57.4
2018-07-24T09:09:16.403Z,57.21
2018-07-24T09:10:16.497Z,57.15
2018-07-24T09:11:16.224Z,57.22
2018-07-24T09:12:16.351Z,57.19
2018-07-24T09:13:16.465Z,57.05
2018-07-24T09:14:16.353Z,57.22
2018-07-24T09:15:16.499Z,57.22
2018-07-24T09:16:16.809Z,57.26
2018-07-24T09:17:16.252Z,57.24
2018-07-24T09:18:16.453Z,57.25
2018-07-24T09:19:16.285Z,57.24
2018-07-24T09:20:16.241Z,57.13
2018-07-24T09:21:16.325Z,57.15
2018-07-24T09:22:16.546Z,57.28
2018-07-24T09:23:16.315Z,57.09
2018-07-24T09:24:16.500Z,57.07
2018-07-24T09:25:16.283Z,57.16
2018-07-24T09:26:16.369Z,57.13
2018-07-24T09:27:16.420Z,57.14
2018-07-24T09:28:16.425Z,57.25
2018-07-24T09:29:16.368Z,57.17
2018-07-24T09:30:17.399Z,57.18
2018-07-24T09:31:16.432Z,57.18
2018-07-24T09:32:16.611Z,57.13
2018-07-24T09:33:16.502Z,57.09
2018-07-24T09:34:16.528Z,57.17
2018-07-24T09:35:16.257Z,57.19
2018-07-24T09:36:16.531Z,57.11
2018-07-24T09:37:16.402Z,57.07
2018-07-24T09:38:16.379Z,57.26
2018-07-24T09:39:16.558Z,57.16
2018-07-24T09:40:16.560Z,57.25
2018-07-24T09:41:16.522Z,57.25
2018-07-24T09:42:16.329Z,57.25
2018-07-24T09:43:16.570Z,57.22
2018-07-24T09:44:16.571Z,57.16
2018-07-24T09:45:16.647Z,57.24
2018-07-24T09:46:16.284Z,57.28
2018-07-24T09:47:16.278Z,57.03
2018-07-24T09:48:16.540Z,57.24
2018-07-24T09:49:16.411Z,57.1
2018-07-24T09:50:16.390Z,57.12
2018-07-24T09:51:16.458Z,57.07
2018-07-24T09:52:16.302Z,57.18
2018-07-24T09:53:16.197Z,57.18
2018-07-24T09:54:16.684Z,57.21
2018-07-24T09:55:16.660Z,57.13
2018-07-24T09:56:16.313Z,57.15
2018-07-24T09:57:16.348Z,57.19
2018-07-24T09:58:16.287Z,57.15
2018-07-24T09:59:16.884Z,57.07
2018-07-24T10:00:16.267Z,57.24
2018-07-24T10:01:16.338Z,57.08
2018-07-24T10:02:16.515Z,57.2
2018-07-24T10:03:16.467Z,57.26
2018-07-24T10:04:16.448Z,57.02
2018-07-24T10:05:16.523Z,57.27
2018-07-24T10:06:16.492Z,57.18
2018-07-24T10:07:16.331Z,57.06
2018-07-24T10:08:16.410Z,57.3
2018-07-24T10:09:16.482Z,57.24
2018-07-24T10:10:16.346Z,57.14
2018-07-24T10:11:16.266Z,57.22
2018-07-24T10:12:16.666Z,57.1
2018-07-24T10:13:16.701Z,57.24
2018-07-24T10:14:16.173Z,57.25
2018-07-24T10:15:16.657Z,57.21
2018-07-24T10:16:16.291Z,57.31
2018-07-24T10:17:16.308Z,57.18
2018-07-24T10:18:16.277Z,57.19
2018-07-24T10:19:16.545Z,57.19
2018-07-24T10:20:16.617Z,57.08
2018-07-24T10:21:16.574Z,57.19
2018-07-24T10:22:16.508Z,57.13
2018-07-24T10:23:16.199Z,57.18
2018-07-24T10:24:16.250Z,57.25
2018-07-24T10:25:16.520Z,57.23
2018-07-24T10:26:16.341Z,57.15
2018-07-24T10:27:16.417Z,57.14
2018-07-24T10:28:16.476Z,57.06
2018-07-24T10:29:16.251Z,57.16
2018-07-24T10:30:16.516Z,57.22
2018-07-24T10:31:16.511Z,57.04
2018-07-24T10:32:16.217Z,57
2018-07-24T10:33:16.302Z,57.1
2018-07-24T10:34:16.435Z,57.09
2018-07-24T10:35:16.431Z,57.13
2018-07-24T10:36:16.331Z,57.21
2018-07-24T10:37:16.367Z,57.13
2018-07-24T10:38:16.361Z,57.32
2018-07-24T10:39:16.074Z,56.99
2018-07-24T10:40:16.183Z,57.21
2018-07-24T10:41:16.249Z,57.27
2018-07-24T10:42:16.335Z,57.15
2018-07-24T10:43:16.165Z,57.17
2018-07-24T10:44:16.292Z,57.17
2018-07-24T10:45:16.540Z,57.21
2018-07-24T10:46:16.220Z,57.08
2018-07-24T10:47:16.257Z,57.11
2018-07-24T10:48:16.438Z,57.1
2018-07-24T10:49:16.616Z,57.22
2018-07-24T10:50:16.319Z,57.16
2018-07-24T10:51:16.373Z,57.11
2018-07-24T10:52:16.522Z,57.08
2018-07-24T10:53:16.293Z,57.2
2018-07-24T10:54:16.477Z,57.18
2018-07-24T10:55:16.543Z,57.17
2018-07-24T10:56:16.538Z,57.18
2018-07-24T10:57:16.136Z,57.17
2018-07-24T10:58:16.573Z,57.16
2018-07-24T10:59:16.120Z,57
2018-07-24T11:00:16.558Z,57.11
2018-07-24T11:01:16.296Z,57.28
2018-07-24T11:02:16.538Z,57.25
2018-07-24T11:03:16.375Z,57.2
2018-07-24T11:04:16.406Z,57.32
2018-07-24T11:05:16.641Z,57.28
2018-07-24T11:06:16.394Z,57.13
2018-07-24T11:07:16.406Z,57.22
2018-07-24T11:08:16.158Z,57.25
2018-07-24T11:09:16.322Z,57.17
2018-07-24T11:10:16.372Z,57.1
2018-07-24T11:11:16.516Z,57.06
2018-07-24T11:12:16.260Z,57.11
2018-07-24T11:13:16.246Z,57.31
2018-07-24T11:14:16.288Z,57.18
2018-07-24T11:15:16.263Z,57.17
2018-07-24T11:16:16.369Z,57.16
2018-07-24T11:17:16.172Z,57.12
2018-07-24T11:18:17.335Z,57.14
2018-07-24T11:19:16.276Z,57.12
2018-07-24T11:20:16.491Z,57.09
2018-07-24T11:21:16.566Z,57.15
2018-07-24T11:22:16.596Z,57.15
2018-07-24T11:23:16.868Z,57.21
2018-07-24T11:24:16.173Z,57.07
2018-07-24T11:25:16.404Z,57.03
2018-07-24T11:26:16.209Z,57.11
2018-07-24T11:27:16.218Z,57.2
2018-07-24T11:28:16.434Z,57.1
2018-07-24T11:29:16.265Z,57.19
2018-07-24T11:30:16.304Z,57.12
2018-07-24T11:31:16.380Z,57.15
2018-07-24T11:32:16.482Z,57.3
2018-07-24T11:33:16.475Z,57.08
2018-07-24T11:34:16.413Z,57.01
2018-07-24T11:35:16.398Z,57.04
2018-07-24T11:36:16.422Z,57.06
2018-07-24T11:37:16.668Z,57.04
2018-07-24T11:38:16.560Z,57.05
2018-07-24T11:39:16.465Z,57.37
2018-07-24T11:40:16.205Z,57.3
2018-07-24T11:41:16.138Z,57.17
2018-07-24T11:42:16.344Z,57.05
2018-07-24T11:43:16.301Z,57.1
2018-07-24T11:44:17.263Z,57.14
2018-07-24T11:45:16.576Z,57.2
2018-07-24T11:46:16.279Z,57.05
2018-07-24T11:47:16.372Z,57.12
2018-07-24T11:48:16.329Z,57.19
2018-07-24T11:49:16.635Z,57.21
2018-07-24T11:50:16.517Z,57.05
2018-07-24T11:51:16.529Z,57.09
2018-07-24T11:52:16.427Z,57.17
2018-07-24T11:53:16.153Z,57.19
2018-07-24T11:54:16.271Z,57.14
2018-07-24T11:55:16.693Z,57.13
2018-07-24T11:56:16.330Z,57.18
2018-07-24T11:57:16.291Z,57.11
2018-07-24T11:58:16.601Z,57.14
2018-07-24T11:59:16.264Z,57.06
2018-07-24T12:00:16.149Z,57.16
2018-07-24T12:01:16.283Z,57.09
2018-07-24T12:02:16.161Z,57.27
2018-07-24T12:03:16.648Z,57.04
2018-07-24T12:04:16.655Z,57.14
2018-07-24T12:05:16.468Z,57.17
2018-07-24T12:06:16.514Z,57.2
2018-07-24T12:07:16.185Z,57.03
2018-07-24T12:08:16.233Z,57.19
2018-07-24T12:09:16.208Z,57.15
2018-07-24T12:10:16.246Z,57.07
2018-07-24T12:11:16.153Z,57.06
2018-07-24T12:12:16.582Z,57.17
2018-07-24T12:13:16.273Z,57.17
2018-07-24T12:14:16.668Z,57.12
2018-07-24T12:15:16.725Z,57.07
2018-07-24T12:16:16.486Z,57.08
2018-07-24T12:17:16.267Z,56.94
2018-07-24T12:18:16.401Z,57.12
2018-07-24T12:19:16.348Z,57.14
2018-07-24T12:20:16.179Z,57
2018-07-24T12:21:16.387Z,57.17
2018-07-24T12:22:16.646Z,57.13
2018-07-24T12:23:16.307Z,57.09
2018-07-24T12:24:16.283Z,57.13
2018-07-24T12:25:16.398Z,57.19
2018-07-24T12:26:16.371Z,57.21
2018-07-24T12:27:16.598Z,57.16
2018-07-24T12:28:16.314Z,57.15
2018-07-24T12:29:16.149Z,57.15
2018-07-24T12:30:16.270Z,57.05
2018-07-24T12:31:16.234Z,57.03
2018-07-24T12:32:16.479Z,57.14
2018-07-24T12:33:16.354Z,57.25
2018-07-24T12:34:16.203Z,57.2
2018-07-24T12:35:16.358Z,57.08
2018-07-24T12:36:16.467Z,57.03
2018-07-24T12:37:16.210Z,57.11
2018-07-24T12:38:16.128Z,57.09
2018-07-24T12:39:16.287Z,57.01
2018-07-24T12:40:16.408Z,57.15
2018-07-24T12:41:16.211Z,57.14
2018-07-24T12:42:16.367Z,57.15
2018-07-24T12:43:16.262Z,57.2
2018-07-24T12:44:16.594Z,57.24
2018-07-24T12:45:16.238Z,57.21
2018-07-24T12:46:16.280Z,57.13
2018-07-24T12:47:16.128Z,57
2018-07-24T12:48:16.255Z,57.08
2018-07-24T12:49:16.382Z,57.14
2018-07-24T12:50:16.692Z,57.02
2018-07-24T12:51:16.448Z,57.13
2018-07-24T12:52:16.318Z,57.08
2018-07-24T12:53:16.435Z,57.2
2018-07-24T12:54:16.400Z,57.16
2018-07-24T12:55:16.173Z,57.1